Zeynalabdin Tagiyev — 9HLD8 — position and weather

sailwx.info

Track history (hours):
 
Tides and Currents Weather Stations Pressure Air Temp Water Temp Dewpoint Dewpoint Depression Visibility Wind Speed Wind Dir Waves Ship Positions

Zeynalabdin Tagiyev

Last reported at 2016-Aug-24 21:15 UTC. Time now 2016-Aug-27 06:27 UTC.
Position N 34°54' W 006°45'.

Length 140 m; draft 4.7 m.

Type: Cargo ship. MMSI: 256107000.

Date/timePositionNaut miles runAvg speedWind from/ knotsBaromVisibWave heightAir tempDewpointWater temp
2016-Aug-24 21:15N 34°54' W 006°45'89 8.9
2016-Aug-24 11:20N 35°59' W 005°30'5 7.0
2016-Aug-24 10:34N 36°01' W 005°24'  
2016-Aug-20 12:33N 36°60' E 012°15'9 9.3
2016-Aug-20 11:33N 36°55' E 012°25'10 9.8
2016-Aug-20 10:32N 36°50' E 012°36'1010.1
2016-Aug-20 09:33N 36°46' E 012°47'10 9.8
2016-Aug-20 08:33N 36°42' E 012°58'10 9.6
2016-Aug-20 07:33N 36°38' E 013°10'10 9.6
2016-Aug-20 06:33N 36°34' E 013°20'9 9.4
2016-Aug-20 05:33N 36°30' E 013°31'9 9.4
2016-Aug-20 04:33N 36°25' E 013°41'9 9.3
2016-Aug-20 03:33N 36°21' E 013°52'9 9.2
2016-Aug-20 02:33N 36°18' E 014°02'9 9.4
2016-Aug-20 01:33N 36°14' E 014°12'9 9.4
2016-Aug-20 00:33N 36°09' E 014°23'9 9.5
2016-Aug-19 23:33N 36°03' E 014°32'8 8.4
2016-Aug-19 22:33N 35°56' E 014°37'7 4.5
2016-Aug-19 21:03N 35°50' E 014°35'0 0.0
2016-Aug-19 20:20N 35°50' E 014°35'0 0.0
2016-Aug-19 19:31N 35°50' E 014°35'0 0.0
2016-Aug-19 18:33N 35°50' E 014°35'0 0.1
2016-Aug-19 17:32N 35°50' E 014°35'0 0.1
2016-Aug-19 16:33N 35°50' E 014°35'0 0.1
2016-Aug-19 15:33N 35°50' E 014°35'0 0.0
2016-Aug-19 14:33N 35°50' E 014°35'9 8.7
2016-Aug-19 13:33N 35°50' E 014°46'10 9.8
2016-Aug-19 12:33N 35°52' E 014°58'1010.0
2016-Aug-19 11:33N 35°53' E 015°10'403 9.1
2016-Aug-17 15:15N 36°42' E 023°26'17 9.8
2016-Aug-17 13:33N 36°57' E 023°37'3110.5
2016-Aug-17 10:33N 37°24' E 023°57'314 8.5
2016-Aug-15 21:25N 40°57' E 028°54'  
Track history (hours):
 
Tides and Currents Weather Stations Pressure Air Temp Water Temp Dewpoint Dewpoint Depression Visibility Wind Speed Wind Dir Waves Ship Positions

Zeynalabdin Tagiyev

Last reported at 2016-Aug-24 21:15 UTC. Time now 2016-Aug-27 06:27 UTC.
Position N 34°54' W 006°45'.

Length 140 m; draft 4.7 m.

Type: Cargo ship. MMSI: 256107000.

Date/timePositionNaut miles runAvg speedWind from/ knotsBaromVisibWave heightAir tempDewpointWater temp
2016-Aug-24 21:15N 34°54' W 006°45'89 8.9
2016-Aug-24 11:20N 35°59' W 005°30'5 7.0
2016-Aug-24 10:34N 36°01' W 005°24'  
2016-Aug-20 12:33N 36°60' E 012°15'9 9.3
2016-Aug-20 11:33N 36°55' E 012°25'10 9.8
2016-Aug-20 10:32N 36°50' E 012°36'1010.1
2016-Aug-20 09:33N 36°46' E 012°47'10 9.8
2016-Aug-20 08:33N 36°42' E 012°58'10 9.6
2016-Aug-20 07:33N 36°38' E 013°10'10 9.6
2016-Aug-20 06:33N 36°34' E 013°20'9 9.4
2016-Aug-20 05:33N 36°30' E 013°31'9 9.4
2016-Aug-20 04:33N 36°25' E 013°41'9 9.3
2016-Aug-20 03:33N 36°21' E 013°52'9 9.2
2016-Aug-20 02:33N 36°18' E 014°02'9 9.4
2016-Aug-20 01:33N 36°14' E 014°12'9 9.4
2016-Aug-20 00:33N 36°09' E 014°23'9 9.5
2016-Aug-19 23:33N 36°03' E 014°32'8 8.4
2016-Aug-19 22:33N 35°56' E 014°37'7 4.5
2016-Aug-19 21:03N 35°50' E 014°35'0 0.0
2016-Aug-19 20:20N 35°50' E 014°35'0 0.0
2016-Aug-19 19:31N 35°50' E 014°35'0 0.0
2016-Aug-19 18:33N 35°50' E 014°35'0 0.1
2016-Aug-19 17:32N 35°50' E 014°35'0 0.1
2016-Aug-19 16:33N 35°50' E 014°35'0 0.1
2016-Aug-19 15:33N 35°50' E 014°35'0 0.0
2016-Aug-19 14:33N 35°50' E 014°35'9 8.7
2016-Aug-19 13:33N 35°50' E 014°46'10 9.8
2016-Aug-19 12:33N 35°52' E 014°58'1010.0
2016-Aug-19 11:33N 35°53' E 015°10'403 9.1
2016-Aug-17 15:15N 36°42' E 023°26'17 9.8
2016-Aug-17 13:33N 36°57' E 023°37'3110.5
2016-Aug-17 10:33N 37°24' E 023°57'314 8.5
2016-Aug-15 21:25N 40°57' E 028°54'  

Dump ship's entire track history